sensor_id;sensor_type;location;lat;lon;timestamp;P1;durP1;ratioP1;P2;durP2;ratioP2
26686;SDS011;14298;50.900;4.648;2024-02-28T00:00:34;2.83;;;2.37;;
26686;SDS011;14298;50.900;4.648;2024-02-28T00:03:02;2.93;;;2.67;;
26686;SDS011;14298;50.900;4.648;2024-02-28T00:05:31;3.97;;;3.57;;
26686;SDS011;14298;50.900;4.648;2024-02-28T00:07:58;3.43;;;3.13;;
26686;SDS011;14298;50.900;4.648;2024-02-28T00:10:26;3.47;;;3.27;;
26686;SDS011;14298;50.900;4.648;2024-02-28T00:12:54;3.70;;;3.40;;
26686;SDS011;14298;50.900;4.648;2024-02-28T00:15:22;4.47;;;4.03;;
26686;SDS011;14298;50.900;4.648;2024-02-28T00:17:56;2.33;;;2.23;;
26686;SDS011;14298;50.900;4.648;2024-02-28T00:20:20;3.53;;;3.23;;
26686;SDS011;14298;50.900;4.648;2024-02-28T00:22:48;2.97;;;2.70;;
26686;SDS011;14298;50.900;4.648;2024-02-28T00:25:16;3.43;;;3.20;;
26686;SDS011;14298;50.900;4.648;2024-02-28T00:27:44;3.17;;;2.93;;
26686;SDS011;14298;50.900;4.648;2024-02-28T00:30:13;2.13;;;2.03;;
26686;SDS011;14298;50.900;4.648;2024-02-28T00:32:41;4.17;;;3.40;;
26686;SDS011;14298;50.900;4.648;2024-02-28T00:35:09;3.10;;;2.37;;
26686;SDS011;14298;50.900;4.648;2024-02-28T00:37:37;2.53;;;2.37;;
26686;SDS011;14298;50.900;4.648;2024-02-28T00:40:05;3.30;;;3.10;;
26686;SDS011;14298;50.900;4.648;2024-02-28T00:42:33;3.43;;;2.50;;
26686;SDS011;14298;50.900;4.648;2024-02-28T00:45:02;3.50;;;3.30;;
26686;SDS011;14298;50.900;4.648;2024-02-28T00:47:30;7.97;;;3.83;;
26686;SDS011;14298;50.900;4.648;2024-02-28T00:49:58;3.70;;;2.93;;
26686;SDS011;14298;50.900;4.648;2024-02-28T00:52:26;3.87;;;3.10;;
26686;SDS011;14298;50.900;4.648;2024-02-28T00:54:54;2.13;;;2.03;;
26686;SDS011;14298;50.900;4.648;2024-02-28T00:57:22;3.13;;;2.80;;
26686;SDS011;14298;50.900;4.648;2024-02-28T00:59:51;3.97;;;3.03;;
26686;SDS011;14298;50.900;4.648;2024-02-28T01:02:19;3.40;;;2.40;;
26686;SDS011;14298;50.900;4.648;2024-02-28T01:04:47;3.60;;;3.30;;
26686;SDS011;14298;50.900;4.648;2024-02-28T01:07:15;3.67;;;3.17;;
26686;SDS011;14298;50.900;4.648;2024-02-28T01:09:43;3.10;;;2.83;;
26686;SDS011;14298;50.900;4.648;2024-02-28T01:12:11;2.97;;;2.67;;
26686;SDS011;14298;50.900;4.648;2024-02-28T01:14:39;3.90;;;3.30;;
26686;SDS011;14298;50.900;4.648;2024-02-28T01:17:07;6.57;;;2.83;;
26686;SDS011;14298;50.900;4.648;2024-02-28T01:19:35;2.83;;;2.63;;
26686;SDS011;14298;50.900;4.648;2024-02-28T01:22:03;2.60;;;2.40;;
26686;SDS011;14298;50.900;4.648;2024-02-28T01:24:31;3.20;;;2.93;;
26686;SDS011;14298;50.900;4.648;2024-02-28T01:27:00;2.83;;;2.63;;
26686;SDS011;14298;50.900;4.648;2024-02-28T01:32:22;4.30;;;3.90;;
26686;SDS011;14298;50.900;4.648;2024-02-28T01:34:50;3.27;;;3.07;;
26686;SDS011;14298;50.900;4.648;2024-02-28T01:37:18;3.57;;;3.33;;
26686;SDS011;14298;50.900;4.648;2024-02-28T01:39:46;3.90;;;3.60;;
26686;SDS011;14298;50.900;4.648;2024-02-28T01:42:14;3.13;;;2.93;;
26686;SDS011;14298;50.900;4.648;2024-02-28T01:44:46;5.73;;;4.93;;
26686;SDS011;14298;50.900;4.648;2024-02-28T01:47:15;5.23;;;3.97;;
26686;SDS011;14298;50.900;4.648;2024-02-28T01:49:44;3.60;;;3.27;;
26686;SDS011;14298;50.900;4.648;2024-02-28T01:52:13;6.33;;;4.53;;
26686;SDS011;14298;50.900;4.648;2024-02-28T01:54:42;5.00;;;4.50;;
26686;SDS011;14298;50.900;4.648;2024-02-28T01:57:10;3.83;;;3.53;;
26686;SDS011;14298;50.900;4.648;2024-02-28T01:59:38;3.50;;;3.20;;
26686;SDS011;14298;50.900;4.648;2024-02-28T02:02:06;5.20;;;4.70;;
26686;SDS011;14298;50.900;4.648;2024-02-28T02:04:35;5.10;;;4.60;;
26686;SDS011;14298;50.900;4.648;2024-02-28T02:07:03;5.70;;;5.17;;
26686;SDS011;14298;50.900;4.648;2024-02-28T02:09:31;5.03;;;4.57;;
26686;SDS011;14298;50.900;4.648;2024-02-28T02:12:01;6.23;;;5.23;;
26686;SDS011;14298;50.900;4.648;2024-02-28T02:14:29;6.90;;;4.97;;
26686;SDS011;14298;50.900;4.648;2024-02-28T02:16:57;6.87;;;6.27;;
26686;SDS011;14298;50.900;4.648;2024-02-28T02:22:16;6.73;;;5.37;;
26686;SDS011;14298;50.900;4.648;2024-02-28T02:24:44;7.27;;;5.90;;
26686;SDS011;14298;50.900;4.648;2024-02-28T02:27:12;8.33;;;7.40;;
26686;SDS011;14298;50.900;4.648;2024-02-28T02:29:40;8.40;;;7.63;;
26686;SDS011;14298;50.900;4.648;2024-02-28T02:32:08;9.00;;;5.83;;
26686;SDS011;14298;50.900;4.648;2024-02-28T02:37:29;10.97;;;6.10;;
26686;SDS011;14298;50.900;4.648;2024-02-28T02:39:57;7.23;;;6.27;;
26686;SDS011;14298;50.900;4.648;2024-02-28T02:42:25;6.93;;;6.30;;
26686;SDS011;14298;50.900;4.648;2024-02-28T02:44:53;11.43;;;7.83;;
26686;SDS011;14298;50.900;4.648;2024-02-28T02:47:21;5.57;;;5.07;;
26686;SDS011;14298;50.900;4.648;2024-02-28T02:49:49;5.27;;;4.37;;
26686;SDS011;14298;50.900;4.648;2024-02-28T02:52:17;7.33;;;6.67;;
26686;SDS011;14298;50.900;4.648;2024-02-28T02:54:45;6.87;;;4.97;;
26686;SDS011;14298;50.900;4.648;2024-02-28T02:57:13;6.30;;;5.33;;
26686;SDS011;14298;50.900;4.648;2024-02-28T02:59:41;8.27;;;6.50;;
26686;SDS011;14298;50.900;4.648;2024-02-28T03:02:09;8.50;;;6.17;;
26686;SDS011;14298;50.900;4.648;2024-02-28T03:07:25;7.13;;;5.63;;
26686;SDS011;14298;50.900;4.648;2024-02-28T03:09:52;6.33;;;5.73;;
26686;SDS011;14298;50.900;4.648;2024-02-28T03:12:20;10.67;;;6.87;;
26686;SDS011;14298;50.900;4.648;2024-02-28T03:14:48;6.07;;;5.47;;
26686;SDS011;14298;50.900;4.648;2024-02-28T03:17:16;7.70;;;6.33;;
26686;SDS011;14298;50.900;4.648;2024-02-28T03:22:33;6.23;;;5.73;;
26686;SDS011;14298;50.900;4.648;2024-02-28T03:25:01;8.13;;;6.20;;
26686;SDS011;14298;50.900;4.648;2024-02-28T03:27:29;8.17;;;6.57;;
26686;SDS011;14298;50.900;4.648;2024-02-28T03:29:57;9.13;;;6.37;;
26686;SDS011;14298;50.900;4.648;2024-02-28T03:32:25;5.17;;;4.60;;
26686;SDS011;14298;50.900;4.648;2024-02-28T03:34:54;5.90;;;5.40;;
26686;SDS011;14298;50.900;4.648;2024-02-28T03:37:22;6.33;;;5.73;;
26686;SDS011;14298;50.900;4.648;2024-02-28T03:39:50;8.17;;;5.03;;
26686;SDS011;14298;50.900;4.648;2024-02-28T03:42:18;5.63;;;5.30;;
26686;SDS011;14298;50.900;4.648;2024-02-28T03:44:46;5.60;;;5.00;;
26686;SDS011;14298;50.900;4.648;2024-02-28T03:47:14;7.33;;;5.93;;
26686;SDS011;14298;50.900;4.648;2024-02-28T03:49:42;6.73;;;6.03;;
26686;SDS011;14298;50.900;4.648;2024-02-28T03:52:11;5.80;;;4.93;;
26686;SDS011;14298;50.900;4.648;2024-02-28T03:54:41;6.23;;;5.73;;
26686;SDS011;14298;50.900;4.648;2024-02-28T03:57:08;9.30;;;6.87;;
26686;SDS011;14298;50.900;4.648;2024-02-28T03:59:36;9.13;;;6.67;;
26686;SDS011;14298;50.900;4.648;2024-02-28T04:02:04;7.67;;;6.30;;
26686;SDS011;14298;50.900;4.648;2024-02-28T04:04:32;8.23;;;7.13;;
26686;SDS011;14298;50.900;4.648;2024-02-28T04:07:00;11.20;;;6.00;;
26686;SDS011;14298;50.900;4.648;2024-02-28T04:09:29;8.77;;;7.10;;
26686;SDS011;14298;50.900;4.648;2024-02-28T04:11:57;6.67;;;5.07;;
26686;SDS011;14298;50.900;4.648;2024-02-28T04:14:25;8.00;;;6.17;;
26686;SDS011;14298;50.900;4.648;2024-02-28T04:16:53;9.87;;;6.57;;
26686;SDS011;14298;50.900;4.648;2024-02-28T04:19:21;8.43;;;5.30;;
26686;SDS011;14298;50.900;4.648;2024-02-28T04:21:49;7.77;;;6.40;;
26686;SDS011;14298;50.900;4.648;2024-02-28T04:24:17;7.13;;;6.33;;
26686;SDS011;14298;50.900;4.648;2024-02-28T04:26:45;6.17;;;5.60;;
26686;SDS011;14298;50.900;4.648;2024-02-28T04:29:13;5.67;;;5.20;;
26686;SDS011;14298;50.900;4.648;2024-02-28T04:31:41;8.50;;;6.73;;
26686;SDS011;14298;50.900;4.648;2024-02-28T04:34:09;6.17;;;5.60;;
26686;SDS011;14298;50.900;4.648;2024-02-28T04:36:37;9.93;;;6.87;;
26686;SDS011;14298;50.900;4.648;2024-02-28T04:39:05;5.10;;;4.70;;
26686;SDS011;14298;50.900;4.648;2024-02-28T04:41:34;6.93;;;6.27;;
26686;SDS011;14298;50.900;4.648;2024-02-28T04:44:02;6.67;;;6.00;;
26686;SDS011;14298;50.900;4.648;2024-02-28T04:46:30;15.10;;;7.20;;
26686;SDS011;14298;50.900;4.648;2024-02-28T04:48:58;5.70;;;5.20;;
26686;SDS011;14298;50.900;4.648;2024-02-28T04:51:27;6.43;;;5.83;;
26686;SDS011;14298;50.900;4.648;2024-02-28T04:53:55;11.50;;;7.00;;
26686;SDS011;14298;50.900;4.648;2024-02-28T04:59:14;7.17;;;6.47;;
26686;SDS011;14298;50.900;4.648;2024-02-28T05:01:42;6.97;;;6.00;;
26686;SDS011;14298;50.900;4.648;2024-02-28T05:06:59;6.00;;;5.40;;
26686;SDS011;14298;50.900;4.648;2024-02-28T05:09:27;6.07;;;5.13;;
26686;SDS011;14298;50.900;4.648;2024-02-28T05:11:55;8.33;;;6.27;;
26686;SDS011;14298;50.900;4.648;2024-02-28T05:14:23;6.27;;;5.17;;
26686;SDS011;14298;50.900;4.648;2024-02-28T05:16:51;6.07;;;5.50;;
26686;SDS011;14298;50.900;4.648;2024-02-28T05:19:19;18.87;;;7.43;;
26686;SDS011;14298;50.900;4.648;2024-02-28T05:21:47;6.67;;;5.30;;
26686;SDS011;14298;50.900;4.648;2024-02-28T05:24:16;6.07;;;5.43;;
26686;SDS011;14298;50.900;4.648;2024-02-28T05:26:45;6.70;;;5.47;;
26686;SDS011;14298;50.900;4.648;2024-02-28T05:29:13;6.37;;;5.77;;
26686;SDS011;14298;50.900;4.648;2024-02-28T05:31:40;7.50;;;5.50;;
26686;SDS011;14298;50.900;4.648;2024-02-28T05:34:08;5.30;;;4.70;;
26686;SDS011;14298;50.900;4.648;2024-02-28T05:36:36;5.13;;;4.40;;
26686;SDS011;14298;50.900;4.648;2024-02-28T05:39:05;5.20;;;4.23;;
26686;SDS011;14298;50.900;4.648;2024-02-28T05:41:34;5.63;;;4.50;;
26686;SDS011;14298;50.900;4.648;2024-02-28T05:44:03;5.50;;;4.90;;
26686;SDS011;14298;50.900;4.648;2024-02-28T05:46:31;5.17;;;4.13;;
26686;SDS011;14298;50.900;4.648;2024-02-28T05:48:59;6.27;;;5.50;;
26686;SDS011;14298;50.900;4.648;2024-02-28T05:54:14;6.87;;;5.77;;
26686;SDS011;14298;50.900;4.648;2024-02-28T05:56:42;9.03;;;5.87;;
26686;SDS011;14298;50.900;4.648;2024-02-28T05:59:10;6.03;;;5.53;;
26686;SDS011;14298;50.900;4.648;2024-02-28T06:01:38;4.43;;;4.03;;
26686;SDS011;14298;50.900;4.648;2024-02-28T06:04:07;6.43;;;5.90;;
26686;SDS011;14298;50.900;4.648;2024-02-28T06:06:35;5.03;;;4.60;;
26686;SDS011;14298;50.900;4.648;2024-02-28T06:09:03;7.63;;;6.60;;
26686;SDS011;14298;50.900;4.648;2024-02-28T06:11:31;5.57;;;4.50;;
26686;SDS011;14298;50.900;4.648;2024-02-28T06:14:00;5.30;;;4.80;;
26686;SDS011;14298;50.900;4.648;2024-02-28T06:16:30;12.40;;;5.80;;
26686;SDS011;14298;50.900;4.648;2024-02-28T06:18:58;6.47;;;5.87;;
26686;SDS011;14298;50.900;4.648;2024-02-28T06:21:26;6.80;;;6.17;;
26686;SDS011;14298;50.900;4.648;2024-02-28T06:23:55;6.87;;;5.40;;
26686;SDS011;14298;50.900;4.648;2024-02-28T06:26:23;6.37;;;5.90;;
26686;SDS011;14298;50.900;4.648;2024-02-28T06:28:51;5.67;;;4.90;;
26686;SDS011;14298;50.900;4.648;2024-02-28T06:31:20;8.73;;;7.60;;
26686;SDS011;14298;50.900;4.648;2024-02-28T06:33:48;5.47;;;4.97;;
26686;SDS011;14298;50.900;4.648;2024-02-28T06:36:16;13.37;;;6.83;;
26686;SDS011;14298;50.900;4.648;2024-02-28T06:41:31;7.73;;;6.87;;
26686;SDS011;14298;50.900;4.648;2024-02-28T06:43:59;8.13;;;6.40;;
26686;SDS011;14298;50.900;4.648;2024-02-28T06:46:27;6.50;;;5.93;;
26686;SDS011;14298;50.900;4.648;2024-02-28T06:48:55;10.63;;;7.30;;
26686;SDS011;14298;50.900;4.648;2024-02-28T06:51:23;8.30;;;6.27;;
26686;SDS011;14298;50.900;4.648;2024-02-28T06:56:38;8.43;;;6.60;;
26686;SDS011;14298;50.900;4.648;2024-02-28T06:59:06;7.07;;;6.00;;
26686;SDS011;14298;50.900;4.648;2024-02-28T07:01:34;10.50;;;7.13;;
26686;SDS011;14298;50.900;4.648;2024-02-28T07:04:02;8.50;;;6.77;;
26686;SDS011;14298;50.900;4.648;2024-02-28T07:06:30;7.07;;;6.47;;
26686;SDS011;14298;50.900;4.648;2024-02-28T07:08:58;6.97;;;6.27;;
26686;SDS011;14298;50.900;4.648;2024-02-28T07:11:26;7.97;;;6.77;;
26686;SDS011;14298;50.900;4.648;2024-02-28T07:13:54;7.47;;;6.87;;
26686;SDS011;14298;50.900;4.648;2024-02-28T07:16:24;8.07;;;6.00;;
26686;SDS011;14298;50.900;4.648;2024-02-28T07:18:52;9.47;;;6.77;;
26686;SDS011;14298;50.900;4.648;2024-02-28T07:21:20;8.57;;;7.27;;
26686;SDS011;14298;50.900;4.648;2024-02-28T07:23:48;9.30;;;7.67;;
26686;SDS011;14298;50.900;4.648;2024-02-28T07:26:16;6.73;;;6.13;;
26686;SDS011;14298;50.900;4.648;2024-02-28T07:28:44;7.23;;;5.77;;
26686;SDS011;14298;50.900;4.648;2024-02-28T07:31:14;7.00;;;4.90;;
26686;SDS011;14298;50.900;4.648;2024-02-28T07:33:42;10.30;;;8.20;;
26686;SDS011;14298;50.900;4.648;2024-02-28T07:36:10;7.30;;;6.60;;
26686;SDS011;14298;50.900;4.648;2024-02-28T07:38:40;9.40;;;7.37;;
26686;SDS011;14298;50.900;4.648;2024-02-28T07:41:08;14.57;;;7.70;;
26686;SDS011;14298;50.900;4.648;2024-02-28T07:43:36;11.57;;;8.07;;
26686;SDS011;14298;50.900;4.648;2024-02-28T07:48:52;8.67;;;7.80;;
26686;SDS011;14298;50.900;4.648;2024-02-28T07:51:20;11.60;;;9.00;;
26686;SDS011;14298;50.900;4.648;2024-02-28T07:53:49;9.47;;;8.27;;
26686;SDS011;14298;50.900;4.648;2024-02-28T07:56:17;12.60;;;8.90;;
26686;SDS011;14298;50.900;4.648;2024-02-28T07:58:45;12.90;;;9.00;;
26686;SDS011;14298;50.900;4.648;2024-02-28T08:01:13;16.30;;;9.37;;
26686;SDS011;14298;50.900;4.648;2024-02-28T08:03:43;7.23;;;6.53;;
26686;SDS011;14298;50.900;4.648;2024-02-28T08:06:11;7.73;;;6.73;;
26686;SDS011;14298;50.900;4.648;2024-02-28T08:08:39;7.80;;;7.03;;
26686;SDS011;14298;50.900;4.648;2024-02-28T08:13:55;12.20;;;7.97;;
26686;SDS011;14298;50.900;4.648;2024-02-28T08:16:22;13.37;;;8.37;;
26686;SDS011;14298;50.900;4.648;2024-02-28T08:18:50;13.33;;;7.87;;
26686;SDS011;14298;50.900;4.648;2024-02-28T08:21:19;9.33;;;6.70;;
26686;SDS011;14298;50.900;4.648;2024-02-28T08:23:47;18.77;;;8.87;;
26686;SDS011;14298;50.900;4.648;2024-02-28T08:26:15;12.50;;;9.30;;
26686;SDS011;14298;50.900;4.648;2024-02-28T08:28:43;10.93;;;7.80;;
26686;SDS011;14298;50.900;4.648;2024-02-28T08:31:13;12.03;;;7.27;;
26686;SDS011;14298;50.900;4.648;2024-02-28T08:33:41;11.13;;;6.97;;
26686;SDS011;14298;50.900;4.648;2024-02-28T08:36:09;12.17;;;7.43;;
26686;SDS011;14298;50.900;4.648;2024-02-28T08:38:38;13.57;;;8.53;;
26686;SDS011;14298;50.900;4.648;2024-02-28T08:41:06;9.10;;;6.73;;
26686;SDS011;14298;50.900;4.648;2024-02-28T08:43:37;14.77;;;8.90;;
26686;SDS011;14298;50.900;4.648;2024-02-28T08:46:06;8.43;;;7.07;;
26686;SDS011;14298;50.900;4.648;2024-02-28T08:48:34;15.77;;;7.77;;
26686;SDS011;14298;50.900;4.648;2024-02-28T08:51:02;19.63;;;9.57;;
26686;SDS011;14298;50.900;4.648;2024-02-28T08:53:30;11.23;;;6.83;;
26686;SDS011;14298;50.900;4.648;2024-02-28T08:55:58;14.43;;;6.77;;
26686;SDS011;14298;50.900;4.648;2024-02-28T08:58:26;9.50;;;6.57;;
26686;SDS011;14298;50.900;4.648;2024-02-28T09:00:54;11.37;;;7.83;;
26686;SDS011;14298;50.900;4.648;2024-02-28T09:03:22;7.93;;;5.20;;
26686;SDS011;14298;50.900;4.648;2024-02-28T09:05:50;9.90;;;7.53;;
26686;SDS011;14298;50.900;4.648;2024-02-28T09:08:18;6.33;;;5.33;;
26686;SDS011;14298;50.900;4.648;2024-02-28T09:10:46;14.13;;;7.20;;
26686;SDS011;14298;50.900;4.648;2024-02-28T09:13:14;8.20;;;6.60;;
26686;SDS011;14298;50.900;4.648;2024-02-28T09:15:42;11.77;;;6.30;;
26686;SDS011;14298;50.900;4.648;2024-02-28T09:18:10;8.87;;;5.80;;
26686;SDS011;14298;50.900;4.648;2024-02-28T09:20:38;6.60;;;5.77;;
26686;SDS011;14298;50.900;4.648;2024-02-28T09:23:06;7.13;;;6.43;;
26686;SDS011;14298;50.900;4.648;2024-02-28T09:25:34;16.60;;;7.00;;
26686;SDS011;14298;50.900;4.648;2024-02-28T09:28:02;10.23;;;6.30;;
26686;SDS011;14298;50.900;4.648;2024-02-28T09:30:30;6.53;;;5.87;;
26686;SDS011;14298;50.900;4.648;2024-02-28T09:32:58;10.07;;;4.90;;
26686;SDS011;14298;50.900;4.648;2024-02-28T09:35:26;8.10;;;4.30;;
26686;SDS011;14298;50.900;4.648;2024-02-28T09:37:54;12.40;;;7.23;;
26686;SDS011;14298;50.900;4.648;2024-02-28T09:40:22;12.37;;;6.20;;
26686;SDS011;14298;50.900;4.648;2024-02-28T09:42:52;12.43;;;7.17;;
26686;SDS011;14298;50.900;4.648;2024-02-28T09:45:21;8.47;;;5.93;;
26686;SDS011;14298;50.900;4.648;2024-02-28T09:47:53;5.97;;;4.83;;
26686;SDS011;14298;50.900;4.648;2024-02-28T09:50:21;6.87;;;4.83;;
26686;SDS011;14298;50.900;4.648;2024-02-28T09:52:58;7.83;;;4.33;;
26686;SDS011;14298;50.900;4.648;2024-02-28T09:55:22;5.10;;;4.37;;
26686;SDS011;14298;50.900;4.648;2024-02-28T09:57:50;6.27;;;4.47;;
26686;SDS011;14298;50.900;4.648;2024-02-28T10:00:21;10.40;;;5.87;;
26686;SDS011;14298;50.900;4.648;2024-02-28T10:02:50;8.67;;;5.77;;
26686;SDS011;14298;50.900;4.648;2024-02-28T10:05:18;9.03;;;6.10;;
26686;SDS011;14298;50.900;4.648;2024-02-28T10:07:46;7.77;;;5.10;;
26686;SDS011;14298;50.900;4.648;2024-02-28T10:10:14;6.40;;;4.97;;
26686;SDS011;14298;50.900;4.648;2024-02-28T10:12:43;5.73;;;4.83;;
26686;SDS011;14298;50.900;4.648;2024-02-28T10:15:12;7.33;;;4.70;;
26686;SDS011;14298;50.900;4.648;2024-02-28T10:17:40;6.33;;;4.87;;
26686;SDS011;14298;50.900;4.648;2024-02-28T10:20:08;7.30;;;4.27;;
26686;SDS011;14298;50.900;4.648;2024-02-28T10:22:36;6.07;;;4.20;;
26686;SDS011;14298;50.900;4.648;2024-02-28T10:25:06;3.80;;;3.43;;
26686;SDS011;14298;50.900;4.648;2024-02-28T10:27:34;4.47;;;3.73;;
26686;SDS011;14298;50.900;4.648;2024-02-28T10:30:23;5.50;;;4.57;;
26686;SDS011;14298;50.900;4.648;2024-02-28T10:32:51;3.80;;;3.50;;
26686;SDS011;14298;50.900;4.648;2024-02-28T10:35:19;3.10;;;2.87;;
26686;SDS011;14298;50.900;4.648;2024-02-28T10:37:48;5.70;;;4.40;;
26686;SDS011;14298;50.900;4.648;2024-02-28T10:40:17;8.43;;;4.33;;
26686;SDS011;14298;50.900;4.648;2024-02-28T10:42:45;4.03;;;3.50;;
26686;SDS011;14298;50.900;4.648;2024-02-28T10:45:16;7.63;;;4.23;;
26686;SDS011;14298;50.900;4.648;2024-02-28T10:47:45;8.30;;;3.83;;
26686;SDS011;14298;50.900;4.648;2024-02-28T10:50:33;3.10;;;2.87;;
26686;SDS011;14298;50.900;4.648;2024-02-28T10:53:02;4.03;;;3.70;;
26686;SDS011;14298;50.900;4.648;2024-02-28T11:01:11;4.30;;;3.37;;
26686;SDS011;14298;50.900;4.648;2024-02-28T11:03:40;9.17;;;4.20;;
26686;SDS011;14298;50.900;4.648;2024-02-28T11:06:17;6.03;;;3.37;;
26686;SDS011;14298;50.900;4.648;2024-02-28T11:09:06;5.87;;;4.63;;
26686;SDS011;14298;50.900;4.648;2024-02-28T11:11:37;4.57;;;3.73;;
26686;SDS011;14298;50.900;4.648;2024-02-28T11:14:07;5.53;;;3.33;;
26686;SDS011;14298;50.900;4.648;2024-02-28T11:16:36;3.60;;;3.30;;
26686;SDS011;14298;50.900;4.648;2024-02-28T11:19:04;4.47;;;3.97;;
26686;SDS011;14298;50.900;4.648;2024-02-28T11:21:34;4.73;;;3.30;;
26686;SDS011;14298;50.900;4.648;2024-02-28T11:24:02;3.37;;;3.07;;
26686;SDS011;14298;50.900;4.648;2024-02-28T11:26:32;5.40;;;2.90;;
26686;SDS011;14298;50.900;4.648;2024-02-28T11:29:00;4.87;;;3.67;;
26686;SDS011;14298;50.900;4.648;2024-02-28T11:42:54;4.73;;;3.43;;
26686;SDS011;14298;50.900;4.648;2024-02-28T11:45:23;7.57;;;3.47;;
26686;SDS011;14298;50.900;4.648;2024-02-28T11:47:52;7.57;;;4.13;;
26686;SDS011;14298;50.900;4.648;2024-02-28T11:53:07;4.27;;;3.50;;
26686;SDS011;14298;50.900;4.648;2024-02-28T11:55:35;7.60;;;4.93;;
26686;SDS011;14298;50.900;4.648;2024-02-28T12:00:52;6.90;;;3.63;;
26686;SDS011;14298;50.900;4.648;2024-02-28T12:03:24;8.13;;;3.80;;
26686;SDS011;14298;50.900;4.648;2024-02-28T12:05:54;2.83;;;2.63;;
26686;SDS011;14298;50.900;4.648;2024-02-28T12:08:22;4.83;;;4.27;;
26686;SDS011;14298;50.900;4.648;2024-02-28T12:10:50;5.47;;;3.47;;
26686;SDS011;14298;50.900;4.648;2024-02-28T12:13:19;6.23;;;3.33;;
26686;SDS011;14298;50.900;4.648;2024-02-28T12:15:47;3.13;;;2.83;;
26686;SDS011;14298;50.900;4.648;2024-02-28T12:18:15;5.57;;;3.53;;
26686;SDS011;14298;50.900;4.648;2024-02-28T12:20:43;5.27;;;3.77;;
26686;SDS011;14298;50.900;4.648;2024-02-28T12:23:12;3.60;;;3.23;;
26686;SDS011;14298;50.900;4.648;2024-02-28T12:25:40;8.83;;;4.30;;
26686;SDS011;14298;50.900;4.648;2024-02-28T12:28:08;3.97;;;3.57;;
26686;SDS011;14298;50.900;4.648;2024-02-28T12:30:40;6.93;;;4.23;;
26686;SDS011;14298;50.900;4.648;2024-02-28T12:33:10;4.23;;;3.43;;
26686;SDS011;14298;50.900;4.648;2024-02-28T12:35:38;5.27;;;3.27;;
26686;SDS011;14298;50.900;4.648;2024-02-28T12:38:08;4.53;;;3.57;;
26686;SDS011;14298;50.900;4.648;2024-02-28T12:40:36;5.03;;;2.47;;
26686;SDS011;14298;50.900;4.648;2024-02-28T12:43:04;13.70;;;3.27;;
26686;SDS011;14298;50.900;4.648;2024-02-28T12:45:32;4.07;;;3.37;;
26686;SDS011;14298;50.900;4.648;2024-02-28T12:50:47;6.40;;;3.20;;
26686;SDS011;14298;50.900;4.648;2024-02-28T12:53:15;10.33;;;3.80;;
26686;SDS011;14298;50.900;4.648;2024-02-28T12:55:43;5.33;;;3.23;;
26686;SDS011;14298;50.900;4.648;2024-02-28T12:58:11;3.23;;;2.80;;
26686;SDS011;14298;50.900;4.648;2024-02-28T13:00:39;5.67;;;2.50;;
26686;SDS011;14298;50.900;4.648;2024-02-28T13:03:08;2.43;;;2.23;;
26686;SDS011;14298;50.900;4.648;2024-02-28T13:05:36;1.70;;;1.57;;
26686;SDS011;14298;50.900;4.648;2024-02-28T13:08:04;4.43;;;2.83;;
26686;SDS011;14298;50.900;4.648;2024-02-28T13:10:32;3.53;;;2.20;;
26686;SDS011;14298;50.900;4.648;2024-02-28T13:13:02;1.37;;;1.27;;
26686;SDS011;14298;50.900;4.648;2024-02-28T13:15:30;2.83;;;1.67;;
26686;SDS011;14298;50.900;4.648;2024-02-28T13:17:58;1.37;;;1.27;;
26686;SDS011;14298;50.900;4.648;2024-02-28T13:20:28;1.90;;;1.77;;
26686;SDS011;14298;50.900;4.648;2024-02-28T13:22:56;1.73;;;1.20;;
26686;SDS011;14298;50.900;4.648;2024-02-28T13:25:24;1.47;;;1.37;;
26686;SDS011;14298;50.900;4.648;2024-02-28T13:27:52;1.13;;;1.13;;
26686;SDS011;14298;50.900;4.648;2024-02-28T13:30:19;1.03;;;1.03;;
26686;SDS011;14298;50.900;4.648;2024-02-28T13:32:47;1.90;;;1.67;;
26686;SDS011;14298;50.900;4.648;2024-02-28T13:35:15;1.00;;;1.00;;
26686;SDS011;14298;50.900;4.648;2024-02-28T13:37:43;1.50;;;1.40;;
26686;SDS011;14298;50.900;4.648;2024-02-28T13:40:12;2.40;;;1.77;;
26686;SDS011;14298;50.900;4.648;2024-02-28T13:42:40;1.00;;;1.00;;
26686;SDS011;14298;50.900;4.648;2024-02-28T13:45:08;1.20;;;1.20;;
26686;SDS011;14298;50.900;4.648;2024-02-28T13:47:38;1.97;;;1.33;;
26686;SDS011;14298;50.900;4.648;2024-02-28T13:50:06;0.90;;;0.90;;
26686;SDS011;14298;50.900;4.648;2024-02-28T13:52:36;1.30;;;1.17;;
26686;SDS011;14298;50.900;4.648;2024-02-28T13:55:04;0.90;;;0.90;;
26686;SDS011;14298;50.900;4.648;2024-02-28T13:57:33;1.50;;;1.40;;
26686;SDS011;14298;50.900;4.648;2024-02-28T14:00:01;3.20;;;1.43;;
26686;SDS011;14298;50.900;4.648;2024-02-28T14:02:30;1.53;;;1.43;;
26686;SDS011;14298;50.900;4.648;2024-02-28T14:04:58;0.80;;;0.80;;
26686;SDS011;14298;50.900;4.648;2024-02-28T14:07:27;1.90;;;1.43;;
26686;SDS011;14298;50.900;4.648;2024-02-28T14:09:55;2.77;;;0.93;;
26686;SDS011;14298;50.900;4.648;2024-02-28T14:12:24;1.40;;;1.30;;
26686;SDS011;14298;50.900;4.648;2024-02-28T14:14:52;2.63;;;1.37;;
26686;SDS011;14298;50.900;4.648;2024-02-28T14:17:20;1.30;;;1.03;;
26686;SDS011;14298;50.900;4.648;2024-02-28T14:19:48;0.90;;;0.90;;
26686;SDS011;14298;50.900;4.648;2024-02-28T14:22:16;1.93;;;1.40;;
26686;SDS011;14298;50.900;4.648;2024-02-28T14:24:44;5.20;;;1.93;;
26686;SDS011;14298;50.900;4.648;2024-02-28T14:27:12;9.40;;;1.70;;
26686;SDS011;14298;50.900;4.648;2024-02-28T14:29:41;1.90;;;1.47;;
26686;SDS011;14298;50.900;4.648;2024-02-28T14:32:09;1.67;;;1.57;;
26686;SDS011;14298;50.900;4.648;2024-02-28T14:37:25;2.03;;;1.47;;
26686;SDS011;14298;50.900;4.648;2024-02-28T14:39:53;2.30;;;1.70;;
26686;SDS011;14298;50.900;4.648;2024-02-28T14:42:22;2.07;;;1.30;;
26686;SDS011;14298;50.900;4.648;2024-02-28T14:44:50;2.17;;;1.00;;
26686;SDS011;14298;50.900;4.648;2024-02-28T14:47:20;1.73;;;1.40;;
26686;SDS011;14298;50.900;4.648;2024-02-28T14:49:48;7.37;;;1.63;;
26686;SDS011;14298;50.900;4.648;2024-02-28T14:52:16;1.97;;;1.60;;
26686;SDS011;14298;50.900;4.648;2024-02-28T14:54:44;2.70;;;2.10;;
26686;SDS011;14298;50.900;4.648;2024-02-28T14:57:13;3.23;;;1.23;;
26686;SDS011;14298;50.900;4.648;2024-02-28T14:59:43;1.43;;;1.30;;
26686;SDS011;14298;50.900;4.648;2024-02-28T15:02:11;1.77;;;1.53;;
26686;SDS011;14298;50.900;4.648;2024-02-28T15:04:39;1.30;;;1.20;;
26686;SDS011;14298;50.900;4.648;2024-02-28T15:07:08;1.40;;;1.30;;
26686;SDS011;14298;50.900;4.648;2024-02-28T15:09:36;1.33;;;1.07;;
26686;SDS011;14298;50.900;4.648;2024-02-28T15:12:04;0.80;;;0.80;;
26686;SDS011;14298;50.900;4.648;2024-02-28T15:14:32;0.83;;;0.83;;
26686;SDS011;14298;50.900;4.648;2024-02-28T15:17:00;2.17;;;1.13;;
26686;SDS011;14298;50.900;4.648;2024-02-28T15:19:28;1.60;;;1.13;;
26686;SDS011;14298;50.900;4.648;2024-02-28T15:21:57;1.53;;;1.17;;
26686;SDS011;14298;50.900;4.648;2024-02-28T15:24:26;1.40;;;1.03;;
26686;SDS011;14298;50.900;4.648;2024-02-28T15:26:54;1.10;;;1.00;;
26686;SDS011;14298;50.900;4.648;2024-02-28T15:29:22;1.83;;;1.37;;
26686;SDS011;14298;50.900;4.648;2024-02-28T15:31:52;1.40;;;1.30;;
26686;SDS011;14298;50.900;4.648;2024-02-28T15:34:20;2.87;;;1.67;;
26686;SDS011;14298;50.900;4.648;2024-02-28T15:36:48;1.43;;;1.10;;
26686;SDS011;14298;50.900;4.648;2024-02-28T15:39:16;1.47;;;1.10;;
26686;SDS011;14298;50.900;4.648;2024-02-28T15:41:44;1.10;;;1.00;;
26686;SDS011;14298;50.900;4.648;2024-02-28T15:44:12;0.90;;;0.90;;
26686;SDS011;14298;50.900;4.648;2024-02-28T15:46:41;11.17;;;1.33;;
26686;SDS011;14298;50.900;4.648;2024-02-28T15:49:09;0.67;;;0.60;;
26686;SDS011;14298;50.900;4.648;2024-02-28T15:51:37;1.40;;;1.00;;
26686;SDS011;14298;50.900;4.648;2024-02-28T15:54:05;5.10;;;1.13;;